Time;durP1;ratioP1;P1;durP2;ratioP2;P2;SDS_P1;SDS_P2;PMS_P1;PMS_P2;Temp;Humidity;BMP_temperature;BMP_pressure;BME280_temperature;BME280_humidity;BME280_pressure;Samples;Min_cycle;Max_cycle;Signal;HPM_P1;HPM_P2
2023/08/17 00:00:08;;;;;;;;;;;20.50;99.90;;;;;;5097732;28;19916;-70
2023/08/17 00:02:34;;;;;;;;;;;20.50;99.90;;;;;;5097804;28;19968;-70
2023/08/17 00:05:01;;;;;;;;;;;20.40;99.90;;;;;;5094854;28;19908;-71
2023/08/17 00:07:28;;;;;;;;;;;20.90;99.90;;;;;;5092178;28;20421;-71
2023/08/17 00:09:54;;;;;;;;;;;21.00;99.90;;;;;;5071777;28;19961;-71
2023/08/17 00:12:21;;;;;;;;;;;21.00;99.90;;;;;;5072275;28;19905;-73
2023/08/17 00:14:48;;;;;;;;;;;20.90;99.90;;;;;;5074844;28;19927;-72
2023/08/17 00:17:15;;;;;;;;;;;20.90;99.90;;;;;;5091421;28;19912;-71
2023/08/17 00:19:41;;;;;;;;;;;21.50;99.90;;;;;;5091446;28;19919;-71
2023/08/17 00:22:08;;;;;;;;;;;22.20;99.90;;;;;;5092236;28;20056;-71
2023/08/17 00:24:35;;;;;;;;;;;21.50;99.90;;;;;;5091134;28;19908;-71
2023/08/17 00:27:03;;;;;;;;;;;21.10;99.90;;;;;;5090767;28;19904;-71
2023/08/17 00:29:30;;;;;;;;;;;21.50;99.90;;;;;;5092127;28;19987;-71
2023/08/17 00:31:57;;;;;;;;;;;22.20;99.90;;;;;;5091588;28;20349;-71
2023/08/17 00:34:23;;;;;;;;;;;22.60;99.00;;;;;;5092111;28;19977;-71
2023/08/17 00:36:50;;;;;;;;;;;22.80;93.40;;;;;;5091940;28;19911;-71
2023/08/17 00:39:17;;;;;;;;;;;22.80;94.70;;;;;;5091356;28;19904;-71
2023/08/17 00:41:44;;;;;;;;;;;23.40;94.00;;;;;;5091949;28;19938;-70
2023/08/17 00:44:10;;;;;;;;;;;23.90;90.70;;;;;;5091658;28;19912;-72
2023/08/17 00:46:38;;;;;;;;;;;24.20;85.80;;;;;;5091570;28;19995;-71
2023/08/17 00:49:05;;;;;;;;;;;23.90;78.30;;;;;;5091777;28;19908;-71
2023/08/17 00:51:32;;;;;;;;;;;24.10;76.70;;;;;;5091866;28;19904;-70
2023/08/17 00:53:59;;;;;;;;;;;23.30;79.50;;;;;;5091453;28;20356;-71
2023/08/17 00:56:27;;;;;;;;;;;22.80;81.60;;;;;;5091782;28;19908;-71
2023/08/17 00:58:54;;;;;;;;;;;23.20;80.30;;;;;;5091647;28;20424;-71
2023/08/17 01:01:21;;;;;;;;;;;23.20;69.30;;;;;;5091299;28;19916;-71
2023/08/17 01:03:48;;;;;;;;;;;22.80;71.90;;;;;;5091518;28;19915;-71
2023/08/17 01:06:14;;;;;;;;;;;22.30;72.90;;;;;;5091779;28;20026;-70
2023/08/17 01:08:42;;;;;;;;;;;22.30;71.70;;;;;;5091150;28;19904;-71
2023/08/17 01:11:28;;;;;;;;;;;21.90;81.20;;;;;;5091424;28;19915;-72
2023/08/17 01:14:17;;;;;;;;;;;22.20;73.10;;;;;;5091719;28;20111;-72
2023/08/17 01:16:48;;;;;;;;;;;22.20;76.80;;;;;;5064417;28;19999;-71
2023/08/17 01:19:20;;;;;;;;;;;22.70;79.60;;;;;;5089150;28;19923;-71
2023/08/17 01:21:50;;;;;;;;;;;23.10;82.70;;;;;;5091499;28;20014;-72
2023/08/17 01:24:16;;;;;;;;;;;23.40;78.60;;;;;;5090819;28;19943;-71
2023/08/17 01:26:43;;;;;;;;;;;23.40;68.90;;;;;;5091304;28;20037;-71
2023/08/17 01:29:10;;;;;;;;;;;23.50;58.80;;;;;;5090086;28;19953;-71
2023/08/17 01:31:50;;;;;;;;;;;23.70;59.70;;;;;;5094034;28;19973;-71
2023/08/17 01:34:19;;;;;;;;;;;24.10;58.60;;;;;;5095248;28;19942;-71
2023/08/17 01:36:52;;;;;;;;;;;23.70;42.60;;;;;;5095482;28;19938;-71
2023/08/17 01:39:22;;;;;;;;;;;23.60;44.10;;;;;;5078171;28;20059;-71
2023/08/17 01:41:48;;;;;;;;;;;24.10;47.10;;;;;;5094276;28;20395;-71
2023/08/17 01:44:15;;;;;;;;;;;24.60;47.90;;;;;;5094688;28;20440;-71
2023/08/17 01:46:42;;;;;;;;;;;24.60;38.80;;;;;;5094151;28;19942;-71
2023/08/17 01:49:09;;;;;;;;;;;24.50;35.40;;;;;;5095905;28;19947;-71
2023/08/17 01:51:36;;;;;;;;;;;25.00;32.50;;;;;;5103667;28;20056;-71
2023/08/17 01:54:02;;;;;;;;;;;25.50;28.60;;;;;;5102489;28;19944;-71
2023/08/17 01:56:29;;;;;;;;;;;24.80;26.70;;;;;;5094129;28;20042;-71
2023/08/17 01:58:55;;;;;;;;;;;25.20;30.00;;;;;;5094216;28;20009;-72
2023/08/17 02:01:22;;;;;;;;;;;25.10;28.00;;;;;;5094003;28;19954;-71
2023/08/17 02:03:49;;;;;;;;;;;25.50;26.80;;;;;;5094060;28;20021;-69
2023/08/17 02:06:15;;;;;;;;;;;25.40;21.30;;;;;;5094105;28;19908;-71
2023/08/17 02:08:42;;;;;;;;;;;25.50;20.70;;;;;;5093731;28;19908;-71
2023/08/17 02:11:10;;;;;;;;;;;25.20;19.80;;;;;;5093654;28;19949;-71
2023/08/17 02:13:37;;;;;;;;;;;25.20;18.10;;;;;;5093950;28;20050;-71
2023/08/17 02:16:04;;;;;;;;;;;25.60;17.50;;;;;;5093928;28;19946;-71
2023/08/17 02:18:33;;;;;;;;;;;25.70;18.20;;;;;;5092813;28;20040;-71
2023/08/17 02:20:59;;;;;;;;;;;25.80;19.80;;;;;;5093972;28;20456;-71
2023/08/17 02:23:26;;;;;;;;;;;25.90;17.30;;;;;;5093998;28;20312;-71
2023/08/17 02:25:52;;;;;;;;;;;25.50;16.20;;;;;;5093474;28;20332;-71
2023/08/17 02:28:19;;;;;;;;;;;25.10;14.30;;;;;;5093380;28;20327;-71
2023/08/17 02:30:47;;;;;;;;;;;25.40;15.20;;;;;;5093785;28;20042;-71
2023/08/17 02:33:14;;;;;;;;;;;25.30;14.00;;;;;;5093018;28;20039;-71
2023/08/17 02:35:41;;;;;;;;;;;25.30;16.50;;;;;;5093657;28;19943;-71
2023/08/17 02:38:07;;;;;;;;;;;25.40;12.20;;;;;;5093270;28;20030;-72
2023/08/17 02:40:34;;;;;;;;;;;25.70;14.20;;;;;;5093089;28;19954;-71
2023/08/17 02:43:01;;;;;;;;;;;26.00;16.60;;;;;;5092720;28;19967;-71
2023/08/17 02:45:27;;;;;;;;;;;25.90;15.60;;;;;;5092600;28;19948;-70
2023/08/17 02:47:54;;;;;;;;;;;26.10;13.20;;;;;;5092721;28;19994;-71
2023/08/17 02:50:21;;;;;;;;;;;25.70;10.70;;;;;;5093448;28;19940;-71
2023/08/17 02:52:47;;;;;;;;;;;25.90;11.90;;;;;;5093438;28;19990;-72
2023/08/17 02:55:14;;;;;;;;;;;26.60;10.80;;;;;;5092780;28;19943;-69
2023/08/17 02:57:40;;;;;;;;;;;26.60;8.90;;;;;;5092895;28;20458;-71
2023/08/17 03:00:07;;;;;;;;;;;25.70;7.40;;;;;;5093338;28;20431;-69
2023/08/17 03:02:34;;;;;;;;;;;25.70;8.10;;;;;;5092741;28;20423;-71
2023/08/17 03:05:01;;;;;;;;;;;25.50;8.80;;;;;;5092920;28;19936;-71
2023/08/17 03:07:28;;;;;;;;;;;25.10;7.50;;;;;;5092895;28;19948;-70
2023/08/17 03:09:54;;;;;;;;;;;24.70;7.80;;;;;;5092660;28;19985;-71
2023/08/17 03:12:21;;;;;;;;;;;24.10;6.10;;;;;;5092645;28;19954;-72
2023/08/17 03:14:48;;;;;;;;;;;23.40;7.10;;;;;;5092550;28;19908;-71
2023/08/17 03:17:14;;;;;;;;;;;23.10;6.00;;;;;;5091760;28;19954;-71
2023/08/17 03:19:41;;;;;;;;;;;23.10;8.10;;;;;;5092247;28;20003;-71
2023/08/17 03:22:08;;;;;;;;;;;23.20;8.70;;;;;;5092492;28;19942;-71
2023/08/17 03:24:34;;;;;;;;;;;23.40;5.00;;;;;;5091895;28;19965;-71
2023/08/17 03:27:01;;;;;;;;;;;24.10;9.20;;;;;;5091664;28;19991;-71
2023/08/17 03:29:28;;;;;;;;;;;25.00;8.30;;;;;;5092382;28;19951;-71
2023/08/17 03:31:54;;;;;;;;;;;25.50;6.20;;;;;;5090894;28;20040;-71
2023/08/17 03:34:21;;;;;;;;;;;25.60;6.30;;;;;;5092295;28;20045;-71
2023/08/17 03:36:48;;;;;;;;;;;25.80;5.60;;;;;;5092121;28;19940;-70
2023/08/17 03:39:14;;;;;;;;;;;25.80;5.00;;;;;;5091621;28;20030;-71
2023/08/17 03:41:41;;;;;;;;;;;25.90;2.70;;;;;;5091651;28;20397;-71
2023/08/17 03:44:09;;;;;;;;;;;25.80;2.80;;;;;;5092058;28;19947;-71
2023/08/17 03:46:36;;;;;;;;;;;25.70;1.80;;;;;;5091341;28;19940;-72
2023/08/17 03:49:02;;;;;;;;;;;25.70;2.70;;;;;;5092182;28;19944;-72
2023/08/17 03:51:29;;;;;;;;;;;25.50;5.10;;;;;;5090413;28;20000;-71
2023/08/17 03:53:56;;;;;;;;;;;25.40;4.70;;;;;;5091620;28;19944;-72
2023/08/17 03:56:22;;;;;;;;;;;25.60;3.30;;;;;;5091603;28;20009;-70
2023/08/17 03:58:50;;;;;;;;;;;25.80;2.50;;;;;;5091978;28;19946;-71
2023/08/17 04:01:17;;;;;;;;;;;25.90;4.00;;;;;;5091534;28;19940;-71
2023/08/17 04:03:43;;;;;;;;;;;26.30;4.30;;;;;;5091951;28;19946;-70
2023/08/17 04:06:10;;;;;;;;;;;26.40;2.10;;;;;;5091547;28;19950;-71
2023/08/17 04:08:37;;;;;;;;;;;26.30;1.30;;;;;;5090092;28;19966;-71
2023/08/17 04:11:04;;;;;;;;;;;25.70;3.10;;;;;;5090432;28;19963;-72
2023/08/17 04:13:31;;;;;;;;;;;25.50;3.20;;;;;;5092058;28;20401;-72
2023/08/17 04:15:58;;;;;;;;;;;25.50;3.40;;;;;;5091500;28;19939;-72
2023/08/17 04:18:25;;;;;;;;;;;25.50;5.90;;;;;;5091133;28;19948;-71
2023/08/17 04:20:51;;;;;;;;;;;25.80;5.30;;;;;;5091699;28;19999;-71
2023/08/17 04:23:22;;;;;;;;;;;25.70;1.50;;;;;;5089654;28;21471;-69
2023/08/17 04:25:49;;;;;;;;;;;25.50;1.10;;;;;;5090887;28;19952;-72
2023/08/17 04:28:16;;;;;;;;;;;25.50;1.10;;;;;;5091429;28;19916;-73
2023/08/17 04:30:43;;;;;;;;;;;25.20;1.00;;;;;;5091166;28;19974;-70
2023/08/17 04:33:09;;;;;;;;;;;25.20;3.10;;;;;;5091816;28;19946;-72
2023/08/17 04:35:36;;;;;;;;;;;25.20;1.20;;;;;;5091203;28;19957;-71
2023/08/17 04:38:03;;;;;;;;;;;25.10;1.00;;;;;;5093502;28;20044;-70
2023/08/17 04:40:30;;;;;;;;;;;25.20;1.80;;;;;;5098098;28;19939;-72
2023/08/17 04:42:57;;;;;;;;;;;25.30;1.30;;;;;;5103312;28;19942;-70
2023/08/17 04:45:24;;;;;;;;;;;24.80;1.00;;;;;;5097061;28;19916;-72
2023/08/17 04:47:50;;;;;;;;;;;24.50;1.00;;;;;;5096237;28;19923;-70
2023/08/17 04:50:17;;;;;;;;;;;24.10;2.10;;;;;;5094208;28;19916;-71
2023/08/17 04:52:45;;;;;;;;;;;24.00;1.10;;;;;;5090980;28;19959;-72
2023/08/17 04:55:14;;;;;;;;;;;23.60;1.00;;;;;;5091347;28;20278;-71
2023/08/17 04:57:40;;;;;;;;;;;23.30;1.70;;;;;;5091052;28;19950;-70
2023/08/17 05:00:09;;;;;;;;;;;23.60;1.80;;;;;;5093317;28;20007;-71
2023/08/17 05:02:39;;;;;;;;;;;23.80;2.20;;;;;;5097940;28;19980;-72
2023/08/17 05:05:07;;;;;;;;;;;23.90;3.30;;;;;;5098614;28;20037;-71
2023/08/17 05:07:33;;;;;;;;;;;23.70;1.00;;;;;;5093147;28;20464;-69
2023/08/17 05:10:00;;;;;;;;;;;23.70;2.20;;;;;;5094180;28;20026;-69
2023/08/17 05:12:27;;;;;;;;;;;23.50;1.00;;;;;;5096164;28;19951;-69
2023/08/17 05:14:54;;;;;;;;;;;23.20;1.00;;;;;;5097121;28;20012;-70
2023/08/17 05:17:21;;;;;;;;;;;23.20;2.50;;;;;;5096771;28;19908;-69
2023/08/17 05:19:48;;;;;;;;;;;23.20;3.50;;;;;;5096536;28;19979;-69
2023/08/17 05:22:15;;;;;;;;;;;23.20;3.00;;;;;;5096561;28;19919;-70
2023/08/17 05:24:42;;;;;;;;;;;23.10;2.60;;;;;;5096696;28;19970;-69
2023/08/17 05:27:08;;;;;;;;;;;23.20;3.60;;;;;;5096637;28;19912;-69
2023/08/17 05:29:35;;;;;;;;;;;23.00;3.00;;;;;;5096599;28;19908;-71
2023/08/17 05:32:02;;;;;;;;;;;22.70;3.50;;;;;;5096411;28;19959;-69
2023/08/17 05:34:29;;;;;;;;;;;22.60;3.60;;;;;;5096327;28;19995;-70
2023/08/17 05:36:56;;;;;;;;;;;22.00;3.00;;;;;;5096306;28;19948;-69
2023/08/17 05:39:23;;;;;;;;;;;21.90;2.50;;;;;;5096171;28;19935;-69
2023/08/17 05:47:56;;;;;;;;;;;22.00;4.90;;;;;;5095512;28;20368;-69
2023/08/17 05:50:22;;;;;;;;;;;22.20;4.60;;;;;;5094688;28;20362;-70
2023/08/17 05:52:49;;;;;;;;;;;22.40;4.10;;;;;;5096267;28;19923;-69
2023/08/17 05:55:16;;;;;;;;;;;22.60;4.90;;;;;;5096079;28;19908;-69
2023/08/17 05:57:42;;;;;;;;;;;22.60;5.60;;;;;;5096224;28;19912;-69
2023/08/17 06:00:12;;;;;;;;;;;22.70;4.10;;;;;;5095972;28;19919;-69
2023/08/17 06:02:39;;;;;;;;;;;22.30;4.90;;;;;;5096099;28;19969;-70
2023/08/17 06:05:07;;;;;;;;;;;21.90;5.00;;;;;;5094361;28;19965;-69
2023/08/17 06:07:34;;;;;;;;;;;21.70;4.90;;;;;;5095920;28;20297;-71
2023/08/17 06:10:03;;;;;;;;;;;21.40;5.80;;;;;;5095629;28;19994;-69
2023/08/17 06:12:29;;;;;;;;;;;21.30;6.50;;;;;;5095574;28;20022;-69
2023/08/17 06:14:56;;;;;;;;;;;21.10;7.20;;;;;;5095617;28;19953;-69
2023/08/17 06:17:23;;;;;;;;;;;21.00;5.30;;;;;;5094129;28;20316;-69
2023/08/17 06:19:50;;;;;;;;;;;20.90;5.60;;;;;;5095297;28;19920;-69
2023/08/17 06:22:17;;;;;;;;;;;20.70;6.50;;;;;;5095831;28;19951;-69
2023/08/17 06:24:43;;;;;;;;;;;20.60;7.40;;;;;;5096384;28;19998;-69
2023/08/17 06:27:11;;;;;;;;;;;20.60;7.10;;;;;;5095995;28;19915;-69
2023/08/17 06:29:38;;;;;;;;;;;20.50;9.00;;;;;;5096408;28;19918;-69
2023/08/17 06:32:05;;;;;;;;;;;20.50;7.50;;;;;;5095699;28;19920;-69
2023/08/17 06:34:32;;;;;;;;;;;20.50;7.90;;;;;;5093889;28;20308;-68
2023/08/17 06:36:59;;;;;;;;;;;20.40;7.70;;;;;;5094741;28;20353;-66
2023/08/17 06:39:26;;;;;;;;;;;20.30;9.00;;;;;;5095188;28;19912;-68
2023/08/17 06:41:52;;;;;;;;;;;20.10;9.20;;;;;;5094089;28;20017;-67
2023/08/17 06:44:19;;;;;;;;;;;20.10;9.00;;;;;;5074359;28;20331;-70
2023/08/17 06:46:46;;;;;;;;;;;20.10;9.40;;;;;;5074388;28;19908;-69
2023/08/17 06:49:12;;;;;;;;;;;19.90;10.20;;;;;;5075227;28;19909;-69
2023/08/17 06:51:39;;;;;;;;;;;19.70;11.80;;;;;;5075297;28;19959;-69
2023/08/17 06:54:09;;;;;;;;;;;19.60;13.60;;;;;;5075335;28;19908;-69
2023/08/17 06:56:35;;;;;;;;;;;19.50;17.00;;;;;;5075220;28;19913;-68
2023/08/17 06:59:02;;;;;;;;;;;19.30;27.10;;;;;;5075394;28;20378;-69
2023/08/17 07:01:29;;;;;;;;;;;19.10;37.10;;;;;;5074961;28;19962;-68
2023/08/17 07:03:57;;;;;;;;;;;18.90;46.60;;;;;;5074955;28;19923;-68
2023/08/17 07:06:24;;;;;;;;;;;18.70;57.30;;;;;;5073499;28;19909;-71
2023/08/17 07:08:52;;;;;;;;;;;18.50;67.20;;;;;;5075146;28;19916;-69
2023/08/17 07:11:19;;;;;;;;;;;18.40;78.10;;;;;;5074681;28;19923;-69
2023/08/17 07:13:46;;;;;;;;;;;18.30;85.30;;;;;;5074816;28;19909;-69
2023/08/17 07:16:13;;;;;;;;;;;18.10;90.20;;;;;;5074955;28;20380;-69
2023/08/17 07:18:40;;;;;;;;;;;18.00;91.70;;;;;;5074585;28;20061;-69
2023/08/17 07:21:06;;;;;;;;;;;17.80;91.50;;;;;;5074693;28;19963;-68
2023/08/17 07:23:33;;;;;;;;;;;17.80;91.90;;;;;;5074775;28;20259;-68
2023/08/17 07:26:00;;;;;;;;;;;17.80;92.70;;;;;;5074663;28;19909;-68
2023/08/17 07:28:27;;;;;;;;;;;17.70;94.20;;;;;;5074291;28;19915;-69
2023/08/17 07:30:53;;;;;;;;;;;17.50;96.60;;;;;;5074424;28;19915;-70
2023/08/17 07:33:20;;;;;;;;;;;17.40;96.60;;;;;;5074380;28;19934;-68
2023/08/17 07:35:47;;;;;;;;;;;17.30;98.60;;;;;;5074518;28;19908;-71
2023/08/17 07:38:13;;;;;;;;;;;17.30;99.10;;;;;;5074482;28;20424;-69
2023/08/17 07:40:42;;;;;;;;;;;17.20;99.90;;;;;;5074778;28;19908;-71
2023/08/17 07:43:09;;;;;;;;;;;17.10;99.90;;;;;;5074138;28;19934;-71
2023/08/17 07:45:36;;;;;;;;;;;16.90;99.90;;;;;;5092899;28;19912;-71
2023/08/17 07:48:02;;;;;;;;;;;16.80;99.90;;;;;;5096248;28;19959;-71
2023/08/17 07:50:29;;;;;;;;;;;16.80;99.90;;;;;;5079080;28;19916;-71
2023/08/17 07:52:56;;;;;;;;;;;16.70;99.90;;;;;;5086322;28;20301;-72
2023/08/17 07:55:23;;;;;;;;;;;16.70;99.90;;;;;;5091236;28;20010;-70
2023/08/17 07:57:49;;;;;;;;;;;16.70;99.90;;;;;;5091863;28;19935;-70
2023/08/17 08:00:16;;;;;;;;;;;16.60;99.90;;;;;;5091350;28;19912;-71
2023/08/17 08:02:43;;;;;;;;;;;16.60;99.90;;;;;;5092437;28;19916;-71
2023/08/17 08:05:09;;;;;;;;;;;16.50;99.90;;;;;;5093447;28;19912;-70
2023/08/17 08:07:36;;;;;;;;;;;16.60;99.90;;;;;;5091083;28;19916;-71
2023/08/17 08:10:03;;;;;;;;;;;16.60;99.90;;;;;;5091160;28;19912;-72
2023/08/17 08:12:30;;;;;;;;;;;16.50;99.90;;;;;;5094406;28;19927;-71
2023/08/17 08:14:56;;;;;;;;;;;16.40;99.90;;;;;;5090665;28;19951;-72
2023/08/17 08:17:23;;;;;;;;;;;16.40;99.90;;;;;;5092017;28;19908;-73
2023/08/17 08:19:50;;;;;;;;;;;16.40;99.90;;;;;;5091100;28;20014;-72
2023/08/17 08:22:17;;;;;;;;;;;16.40;99.90;;;;;;5090615;28;19919;-73
2023/08/17 08:24:44;;;;;;;;;;;16.40;99.90;;;;;;5091503;28;19912;-70
2023/08/17 08:27:10;;;;;;;;;;;16.50;99.90;;;;;;5091606;28;19934;-69
2023/08/17 08:29:37;;;;;;;;;;;16.50;99.90;;;;;;5091195;28;19957;-72
2023/08/17 08:32:04;;;;;;;;;;;16.50;99.90;;;;;;5091395;28;19924;-71
2023/08/17 08:34:31;;;;;;;;;;;16.50;99.90;;;;;;5091585;28;19916;-73
2023/08/17 08:36:58;;;;;;;;;;;16.60;99.90;;;;;;5091498;28;19915;-71
2023/08/17 08:39:27;;;;;;;;;;;16.60;99.90;;;;;;5091039;28;19912;-74
2023/08/17 08:41:54;;;;;;;;;;;16.60;99.90;;;;;;5083463;28;19924;-72
2023/08/17 08:44:21;;;;;;;;;;;16.50;99.90;;;;;;5089402;28;19908;-71
2023/08/17 08:46:48;;;;;;;;;;;16.40;99.90;;;;;;5091372;28;20349;-73
2023/08/17 08:49:19;;;;;;;;;;;16.40;99.90;;;;;;5090234;28;20312;-73
2023/08/17 08:51:48;;;;;;;;;;;16.40;99.90;;;;;;5090403;28;19916;-73
2023/08/17 08:54:20;;;;;;;;;;;16.30;99.90;;;;;;5091346;28;19913;-73
2023/08/17 08:56:49;;;;;;;;;;;16.30;99.90;;;;;;5091300;28;19908;-72
2023/08/17 08:59:17;;;;;;;;;;;16.30;99.90;;;;;;5091024;28;19958;-72
2023/08/17 09:01:43;;;;;;;;;;;16.40;99.90;;;;;;5091186;28;19912;-73
2023/08/17 09:04:10;;;;;;;;;;;16.40;99.90;;;;;;5091011;28;19912;-72
2023/08/17 09:06:38;;;;;;;;;;;16.30;99.90;;;;;;5091033;28;19939;-72
2023/08/17 09:09:06;;;;;;;;;;;16.30;99.90;;;;;;5091003;28;19986;-72
2023/08/17 09:11:32;;;;;;;;;;;16.40;99.90;;;;;;5090947;28;20427;-71
2023/08/17 09:13:59;;;;;;;;;;;16.40;99.90;;;;;;5090938;28;20404;-72
2023/08/17 09:16:27;;;;;;;;;;;16.30;99.90;;;;;;5091166;28;20361;-73
2023/08/17 09:18:54;;;;;;;;;;;16.20;99.90;;;;;;5090335;28;19928;-71
2023/08/17 09:21:22;;;;;;;;;;;16.10;99.90;;;;;;5090754;28;19912;-72
2023/08/17 09:23:55;;;;;;;;;;;16.10;99.90;;;;;;5091123;28;19912;-72
2023/08/17 09:26:25;;;;;;;;;;;16.00;99.90;;;;;;5089415;28;19912;-73
2023/08/17 09:28:54;;;;;;;;;;;16.00;99.90;;;;;;5090445;28;19920;-72
2023/08/17 09:31:24;;;;;;;;;;;15.90;99.90;;;;;;5089822;28;19916;-74
2023/08/17 09:33:51;;;;;;;;;;;15.80;99.90;;;;;;5091058;28;19967;-72
2023/08/17 09:36:24;;;;;;;;;;;15.90;99.90;;;;;;5091848;28;20277;-73
2023/08/17 09:38:51;;;;;;;;;;;15.80;99.90;;;;;;5092526;28;19912;-72
2023/08/17 09:41:19;;;;;;;;;;;15.80;99.90;;;;;;5092723;28;19918;-73
2023/08/17 09:43:46;;;;;;;;;;;15.80;99.90;;;;;;5092909;28;19908;-72
2023/08/17 09:46:13;;;;;;;;;;;15.70;99.90;;;;;;5092458;28;20433;-74
2023/08/17 09:48:40;;;;;;;;;;;15.70;99.90;;;;;;5092623;28;19919;-72
2023/08/17 09:51:07;;;;;;;;;;;15.70;99.90;;;;;;5093078;28;19909;-72
2023/08/17 09:53:39;;;;;;;;;;;15.60;99.90;;;;;;5096146;28;19920;-73
2023/08/17 09:56:10;;;;;;;;;;;15.60;99.90;;;;;;5096531;28;19908;-72
2023/08/17 09:58:38;;;;;;;;;;;15.60;99.90;;;;;;5095907;28;20000;-73
2023/08/17 10:01:05;;;;;;;;;;;15.50;99.90;;;;;;5095139;28;20365;-71
2023/08/17 10:03:35;;;;;;;;;;;15.60;99.90;;;;;;5096140;28;19915;-71
2023/08/17 10:06:05;;;;;;;;;;;15.50;99.90;;;;;;5094072;28;20262;-72
2023/08/17 10:08:34;;;;;;;;;;;15.50;99.90;;;;;;5096000;28;20411;-71
2023/08/17 10:11:02;;;;;;;;;;;15.50;99.90;;;;;;5095434;28;20380;-72
2023/08/17 10:13:29;;;;;;;;;;;15.60;99.90;;;;;;5095764;28;19977;-72
2023/08/17 10:16:02;;;;;;;;;;;15.60;99.90;;;;;;5095918;28;20327;-71
2023/08/17 10:18:32;;;;;;;;;;;15.60;99.90;;;;;;5095597;28;20339;-72
2023/08/17 10:21:01;;;;;;;;;;;15.50;99.90;;;;;;5095471;28;19916;-71
2023/08/17 10:23:28;;;;;;;;;;;15.60;99.90;;;;;;5094943;28;19912;-72
2023/08/17 10:25:55;;;;;;;;;;;15.50;99.90;;;;;;5094912;28;19935;-71
2023/08/17 10:28:22;;;;;;;;;;;15.50;99.90;;;;;;5094474;28;19912;-72
2023/08/17 10:30:52;;;;;;;;;;;15.50;99.90;;;;;;5095425;28;19912;-72
2023/08/17 10:33:21;;;;;;;;;;;15.50;99.90;;;;;;5093533;28;20281;-73
2023/08/17 10:35:48;;;;;;;;;;;15.60;99.90;;;;;;5095222;28;19950;-70
2023/08/17 10:38:15;;;;;;;;;;;15.50;99.90;;;;;;5095671;28;19908;-73
2023/08/17 10:40:45;;;;;;;;;;;15.50;99.90;;;;;;5094881;28;19931;-71
2023/08/17 10:43:12;;;;;;;;;;;15.50;99.90;;;;;;5093853;28;19912;-73
2023/08/17 10:45:39;;;;;;;;;;;15.50;99.90;;;;;;5095575;28;20310;-71
2023/08/17 10:48:05;;;;;;;;;;;15.50;99.90;;;;;;5094511;28;19955;-72
2023/08/17 10:50:35;;;;;;;;;;;15.50;99.90;;;;;;5095401;28;19908;-72
2023/08/17 10:53:10;;;;;;;;;;;15.40;99.90;;;;;;5094787;28;19922;-70
2023/08/17 10:55:38;;;;;;;;;;;15.40;99.90;;;;;;5095101;28;20266;-70
2023/08/17 10:58:05;;;;;;;;;;;15.30;99.90;;;;;;5094822;28;19916;-70
2023/08/17 11:00:36;;;;;;;;;;;15.20;99.90;;;;;;5094537;28;19912;-71
2023/08/17 11:03:10;;;;;;;;;;;15.20;99.90;;;;;;5092905;28;19912;-71
2023/08/17 11:05:39;;;;;;;;;;;15.20;99.90;;;;;;5094805;28;19908;-72
2023/08/17 11:08:06;;;;;;;;;;;15.10;99.90;;;;;;5093430;28;20289;-73
2023/08/17 11:10:34;;;;;;;;;;;15.10;99.90;;;;;;5092753;28;19915;-72
2023/08/17 11:13:02;;;;;;;;;;;15.10;99.90;;;;;;5094627;28;19916;-71
2023/08/17 11:15:48;;;;;;;;;;;15.00;99.90;;;;;;5094593;28;19949;-72
2023/08/17 11:18:14;;;;;;;;;;;14.90;99.90;;;;;;5094201;28;19912;-71
2023/08/17 11:20:42;;;;;;;;;;;14.70;99.90;;;;;;5094197;28;20355;-73
2023/08/17 11:23:09;;;;;;;;;;;14.60;99.90;;;;;;5094739;28;20412;-72
2023/08/17 11:25:37;;;;;;;;;;;14.50;99.90;;;;;;5094113;28;19993;-70
2023/08/17 11:28:06;;;;;;;;;;;14.40;99.90;;;;;;5094369;28;20360;-71
2023/08/17 11:30:35;;;;;;;;;;;14.40;99.90;;;;;;5094287;28;19904;-70
2023/08/17 11:33:02;;;;;;;;;;;14.40;99.90;;;;;;5093651;28;19916;-70
2023/08/17 11:35:28;;;;;;;;;;;14.20;99.90;;;;;;5092760;28;19908;-70
2023/08/17 11:37:55;;;;;;;;;;;14.20;99.90;;;;;;5093557;28;19915;-71
2023/08/17 11:40:22;;;;;;;;;;;14.20;99.90;;;;;;5092388;28;19907;-71
2023/08/17 11:42:49;;;;;;;;;;;14.20;99.90;;;;;;5093522;28;19908;-71
2023/08/17 11:45:16;;;;;;;;;;;14.10;99.90;;;;;;5093880;28;19908;-69
2023/08/17 11:47:43;;;;;;;;;;;14.00;99.90;;;;;;5094047;28;19911;-69
2023/08/17 11:50:10;;;;;;;;;;;14.00;99.90;;;;;;5091619;28;20251;-69
2023/08/17 11:52:37;;;;;;;;;;;13.90;99.90;;;;;;5093935;28;20376;-69
2023/08/17 11:55:05;;;;;;;;;;;14.00;99.90;;;;;;5093512;28;19954;-70
2023/08/17 11:57:32;;;;;;;;;;;14.00;99.90;;;;;;5093304;28;19908;-70
2023/08/17 12:00:00;;;;;;;;;;;14.10;99.90;;;;;;5093535;28;19915;-70
2023/08/17 12:02:27;;;;;;;;;;;14.10;99.90;;;;;;5093452;28;19915;-70
2023/08/17 12:04:55;;;;;;;;;;;14.30;99.90;;;;;;5093836;28;19904;-71
2023/08/17 12:07:23;;;;;;;;;;;14.30;99.90;;;;;;5093327;28;19908;-70
2023/08/17 12:09:53;;;;;;;;;;;14.20;99.90;;;;;;5093284;28;20253;-70
2023/08/17 12:12:21;;;;;;;;;;;14.20;99.90;;;;;;5093231;28;19919;-71
2023/08/17 12:14:48;;;;;;;;;;;14.20;99.90;;;;;;5092246;28;19960;-71
2023/08/17 12:17:16;;;;;;;;;;;14.20;99.90;;;;;;5093535;28;19919;-70
2023/08/17 12:19:43;;;;;;;;;;;14.10;99.90;;;;;;5092557;28;19966;-70
2023/08/17 12:22:10;;;;;;;;;;;14.20;99.90;;;;;;5093211;28;19908;-70
2023/08/17 12:24:37;;;;;;;;;;;14.10;99.90;;;;;;5092989;28;19908;-70
2023/08/17 12:27:05;;;;;;;;;;;14.10;99.90;;;;;;5093391;28;20491;-71
2023/08/17 12:29:32;;;;;;;;;;;14.00;99.90;;;;;;5093297;28;20014;-71
2023/08/17 12:31:59;;;;;;;;;;;14.00;99.90;;;;;;5092717;28;19915;-70
2023/08/17 12:34:26;;;;;;;;;;;13.90;99.90;;;;;;5093347;28;20261;-70
2023/08/17 12:36:53;;;;;;;;;;;13.80;99.90;;;;;;5092979;28;19904;-70
2023/08/17 12:39:20;;;;;;;;;;;13.80;99.90;;;;;;5091571;28;20338;-71
2023/08/17 12:41:46;;;;;;;;;;;13.70;99.90;;;;;;5093110;28;19951;-71
2023/08/17 12:44:13;;;;;;;;;;;13.60;99.90;;;;;;5092856;28;20003;-72
2023/08/17 12:46:43;;;;;;;;;;;13.60;99.90;;;;;;5093281;28;19904;-71
2023/08/17 12:49:09;;;;;;;;;;;13.50;99.90;;;;;;5093070;28;20007;-71
2023/08/17 12:51:37;;;;;;;;;;;13.50;99.90;;;;;;5092401;28;19916;-71
2023/08/17 12:54:04;;;;;;;;;;;13.50;99.90;;;;;;5093139;28;19905;-71
2023/08/17 12:56:31;;;;;;;;;;;13.50;99.90;;;;;;5092762;28;20332;-71
2023/08/17 12:58:58;;;;;;;;;;;13.50;99.90;;;;;;5092958;28;19959;-70
2023/08/17 13:01:24;;;;;;;;;;;13.50;99.90;;;;;;5092364;28;19912;-70
2023/08/17 13:03:51;;;;;;;;;;;13.50;99.90;;;;;;5092899;28;19912;-71
2023/08/17 13:06:17;;;;;;;;;;;13.50;99.90;;;;;;5091530;28;20396;-70
2023/08/17 13:08:44;;;;;;;;;;;13.30;99.90;;;;;;5092488;28;20418;-71
2023/08/17 13:11:11;;;;;;;;;;;13.30;99.90;;;;;;5092748;28;19908;-71
2023/08/17 13:13:38;;;;;;;;;;;13.30;99.90;;;;;;5092677;28;19912;-71
2023/08/17 13:16:05;;;;;;;;;;;13.30;99.90;;;;;;5092190;28;20006;-71
2023/08/17 13:18:31;;;;;;;;;;;13.20;99.90;;;;;;5092390;28;19919;-70
2023/08/17 13:20:58;;;;;;;;;;;13.20;99.90;;;;;;5092539;28;20376;-71
2023/08/17 13:23:25;;;;;;;;;;;13.20;99.90;;;;;;5091579;28;20383;-70
2023/08/17 13:25:51;;;;;;;;;;;13.10;99.90;;;;;;5091860;28;19915;-70
2023/08/17 13:28:18;;;;;;;;;;;13.00;99.90;;;;;;5096698;28;20006;-71
2023/08/17 13:30:45;;;;;;;;;;;12.90;99.90;;;;;;5096746;28;19912;-71
2023/08/17 13:33:12;;;;;;;;;;;12.90;99.90;;;;;;5096673;28;19912;-70
2023/08/17 13:35:39;;;;;;;;;;;12.90;99.90;;;;;;5096500;28;19908;-71
2023/08/17 13:38:05;;;;;;;;;;;12.90;99.90;;;;;;5096121;28;19943;-70
2023/08/17 13:40:33;;;;;;;;;;;13.00;99.90;;;;;;5096825;28;19908;-71
2023/08/17 13:43:00;;;;;;;;;;;12.90;99.90;;;;;;5096359;28;19908;-71
2023/08/17 13:45:27;;;;;;;;;;;12.80;99.90;;;;;;5096026;28;19908;-71
2023/08/17 13:47:53;;;;;;;;;;;12.80;99.90;;;;;;5095553;28;19908;-71
2023/08/17 13:50:20;;;;;;;;;;;12.80;99.90;;;;;;5096044;28;19908;-70
2023/08/17 13:52:47;;;;;;;;;;;12.70;99.90;;;;;;5096083;28;20015;-70
2023/08/17 13:55:14;;;;;;;;;;;12.70;99.90;;;;;;5095816;28;19915;-71
2023/08/17 13:57:40;;;;;;;;;;;12.70;99.90;;;;;;5095899;28;20378;-71
2023/08/17 14:00:07;;;;;;;;;;;12.70;99.90;;;;;;5095683;28;20058;-70
2023/08/17 14:02:34;;;;;;;;;;;12.70;99.90;;;;;;5095610;28;19960;-71
2023/08/17 14:05:01;;;;;;;;;;;12.70;99.90;;;;;;5096024;28;19912;-70
2023/08/17 14:07:27;;;;;;;;;;;12.70;99.90;;;;;;5095804;28;19915;-70
2023/08/17 14:09:54;;;;;;;;;;;12.60;99.90;;;;;;5095636;28;20014;-70
2023/08/17 14:12:21;;;;;;;;;;;12.70;99.90;;;;;;5095486;28;19916;-70
2023/08/17 14:14:47;;;;;;;;;;;12.60;99.90;;;;;;5095593;28;20272;-71
2023/08/17 14:17:14;;;;;;;;;;;12.60;99.90;;;;;;5094098;28;19915;-71
2023/08/17 14:19:42;;;;;;;;;;;12.60;99.90;;;;;;5095166;28;19916;-71
2023/08/17 14:22:09;;;;;;;;;;;12.60;99.90;;;;;;5094639;28;19915;-71
2023/08/17 14:24:35;;;;;;;;;;;12.60;99.90;;;;;;5095625;28;19908;-71
2023/08/17 14:27:02;;;;;;;;;;;12.60;99.90;;;;;;5095193;28;19908;-71